sensor_id;sensor_type;location;lat;lon;timestamp;pressure;altitude;pressure_sealevel;temperature;humidity
15932;BME280;8065;49.520;11.284;2022-11-18T00:01:46;95728.03;;;11.35;97.39
15932;BME280;8065;49.520;11.284;2022-11-18T00:04:13;95729.66;;;11.47;97.37
15932;BME280;8065;49.520;11.284;2022-11-18T00:06:39;95728.09;;;11.42;97.19
15932;BME280;8065;49.520;11.284;2022-11-18T00:09:07;95720.47;;;11.41;97.27
15932;BME280;8065;49.520;11.284;2022-11-18T00:11:34;95722.41;;;11.44;96.99
15932;BME280;8065;49.520;11.284;2022-11-18T00:14:20;95712.97;;;11.50;97.38
15932;BME280;8065;49.520;11.284;2022-11-18T00:16:50;95718.31;;;11.54;96.72
15932;BME280;8065;49.520;11.284;2022-11-18T00:19:17;95715.59;;;11.46;97.46
15932;BME280;8065;49.520;11.284;2022-11-18T00:21:44;95709.88;;;11.44;96.82
15932;BME280;8065;49.520;11.284;2022-11-18T00:24:12;95714.13;;;11.53;96.69
15932;BME280;8065;49.520;11.284;2022-11-18T00:26:38;95715.25;;;11.52;96.12
15932;BME280;8065;49.520;11.284;2022-11-18T00:29:05;95719.00;;;11.43;96.06
15932;BME280;8065;49.520;11.284;2022-11-18T00:31:31;95709.13;;;11.44;96.29
15932;BME280;8065;49.520;11.284;2022-11-18T00:33:58;95715.94;;;11.41;96.07
15932;BME280;8065;49.520;11.284;2022-11-18T00:36:25;95707.47;;;11.32;96.38
15932;BME280;8065;49.520;11.284;2022-11-18T00:38:51;95704.81;;;11.32;96.26
15932;BME280;8065;49.520;11.284;2022-11-18T00:41:19;95701.03;;;11.33;96.54
15932;BME280;8065;49.520;11.284;2022-11-18T00:43:46;95703.69;;;11.33;96.57
15932;BME280;8065;49.520;11.284;2022-11-18T00:46:12;95709.00;;;11.33;96.63
15932;BME280;8065;49.520;11.284;2022-11-18T00:48:39;95716.66;;;11.38;96.97
15932;BME280;8065;49.520;11.284;2022-11-18T00:51:07;95712.91;;;11.43;95.95
15932;BME280;8065;49.520;11.284;2022-11-18T00:53:34;95706.75;;;11.35;96.44
15932;BME280;8065;49.520;11.284;2022-11-18T00:56:01;95713.59;;;11.36;96.36
15932;BME280;8065;49.520;11.284;2022-11-18T00:58:29;95719.72;;;11.40;96.15
15932;BME280;8065;49.520;11.284;2022-11-18T01:00:55;95718.19;;;11.39;96.03
15932;BME280;8065;49.520;11.284;2022-11-18T01:03:22;95709.09;;;11.40;95.65
15932;BME280;8065;49.520;11.284;2022-11-18T01:05:50;95725.50;;;11.49;95.56
15932;BME280;8065;49.520;11.284;2022-11-18T01:08:17;95728.91;;;11.46;95.72
15932;BME280;8065;49.520;11.284;2022-11-18T01:10:45;95730.13;;;11.56;95.38
15932;BME280;8065;49.520;11.284;2022-11-18T01:13:14;95730.50;;;11.55;95.12
15932;BME280;8065;49.520;11.284;2022-11-18T01:15:48;95721.28;;;11.45;94.62
15932;BME280;8065;49.520;11.284;2022-11-18T01:18:17;95723.88;;;11.38;95.89
15932;BME280;8065;49.520;11.284;2022-11-18T01:20:44;95727.00;;;11.47;95.49
15932;BME280;8065;49.520;11.284;2022-11-18T01:23:11;95728.81;;;11.39;94.84
15932;BME280;8065;49.520;11.284;2022-11-18T01:25:41;95729.88;;;11.31;95.02
15932;BME280;8065;49.520;11.284;2022-11-18T01:28:07;95727.59;;;11.26;95.15
15932;BME280;8065;49.520;11.284;2022-11-18T01:30:35;95729.09;;;11.27;94.76
15932;BME280;8065;49.520;11.284;2022-11-18T01:33:04;95724.19;;;11.33;94.92
15932;BME280;8065;49.520;11.284;2022-11-18T01:35:33;95721.56;;;11.36;94.68
15932;BME280;8065;49.520;11.284;2022-11-18T01:37:59;95728.03;;;11.35;94.55
15932;BME280;8065;49.520;11.284;2022-11-18T01:40:26;95724.56;;;11.31;94.61
15932;BME280;8065;49.520;11.284;2022-11-18T01:42:54;95721.88;;;11.28;94.47
15932;BME280;8065;49.520;11.284;2022-11-18T01:45:27;95729.38;;;11.15;93.74
15932;BME280;8065;49.520;11.284;2022-11-18T01:47:59;95733.81;;;11.04;94.44
15932;BME280;8065;49.520;11.284;2022-11-18T01:50:28;95723.84;;;10.97;95.00
15932;BME280;8065;49.520;11.284;2022-11-18T01:52:59;95724.13;;;10.89;94.85
15932;BME280;8065;49.520;11.284;2022-11-18T01:55:32;95733.63;;;10.90;95.14
15932;BME280;8065;49.520;11.284;2022-11-18T01:58:04;95731.78;;;10.94;94.97
15932;BME280;8065;49.520;11.284;2022-11-18T02:00:31;95727.75;;;11.07;94.65
15932;BME280;8065;49.520;11.284;2022-11-18T02:02:59;95730.41;;;11.07;94.67
15932;BME280;8065;49.520;11.284;2022-11-18T02:05:28;95731.53;;;11.06;94.45
15932;BME280;8065;49.520;11.284;2022-11-18T02:07:59;95749.09;;;11.14;94.11
15932;BME280;8065;49.520;11.284;2022-11-18T02:10:26;95741.22;;;11.21;93.74
15932;BME280;8065;49.520;11.284;2022-11-18T02:12:53;95752.50;;;11.11;94.46
15932;BME280;8065;49.520;11.284;2022-11-18T02:15:25;95743.75;;;11.10;94.90
15932;BME280;8065;49.520;11.284;2022-11-18T02:18:03;95746.78;;;11.09;94.61
15932;BME280;8065;49.520;11.284;2022-11-18T02:20:35;95749.09;;;11.14;94.87
15932;BME280;8065;49.520;11.284;2022-11-18T02:23:41;95743.78;;;11.14;94.29
15932;BME280;8065;49.520;11.284;2022-11-18T02:26:35;95744.84;;;11.06;94.41
15932;BME280;8065;49.520;11.284;2022-11-18T02:29:09;95727.84;;;11.14;94.53
15932;BME280;8065;49.520;11.284;2022-11-18T02:31:44;95726.28;;;11.09;94.15
15932;BME280;8065;49.520;11.284;2022-11-18T02:34:18;95723.09;;;10.97;93.87
15932;BME280;8065;49.520;11.284;2022-11-18T02:36:52;95719.88;;;10.80;94.33
15932;BME280;8065;49.520;11.284;2022-11-18T02:39:23;95714.38;;;10.66;94.64
15932;BME280;8065;49.520;11.284;2022-11-18T02:41:54;95725.72;;;10.63;95.32
15932;BME280;8065;49.520;11.284;2022-11-18T02:44:25;95721.22;;;10.67;94.96
15932;BME280;8065;49.520;11.284;2022-11-18T02:46:56;95715.19;;;10.70;95.25
15932;BME280;8065;49.520;11.284;2022-11-18T02:49:28;95717.84;;;10.70;94.60
15932;BME280;8065;49.520;11.284;2022-11-18T02:51:57;95714.47;;;10.73;95.05
15932;BME280;8065;49.520;11.284;2022-11-18T02:54:26;95717.53;;;10.75;94.63
15932;BME280;8065;49.520;11.284;2022-11-18T02:56:54;95723.56;;;10.72;95.24
15932;BME280;8065;49.520;11.284;2022-11-18T02:59:21;95729.66;;;10.73;95.53
15932;BME280;8065;49.520;11.284;2022-11-18T03:01:48;95729.72;;;10.80;95.22
15932;BME280;8065;49.520;11.284;2022-11-18T03:04:16;95737.75;;;10.83;95.12
15932;BME280;8065;49.520;11.284;2022-11-18T03:06:47;95730.44;;;10.77;95.53
15932;BME280;8065;49.520;11.284;2022-11-18T03:09:18;95727.03;;;10.76;96.02
15932;BME280;8065;49.520;11.284;2022-11-18T03:11:52;95727.06;;;10.80;95.43
15932;BME280;8065;49.520;11.284;2022-11-18T03:14:24;95731.13;;;10.70;95.76
15932;BME280;8065;49.520;11.284;2022-11-18T03:16:58;95734.69;;;10.81;95.47
15932;BME280;8065;49.520;11.284;2022-11-18T03:19:33;95730.50;;;10.80;95.14
15932;BME280;8065;49.520;11.284;2022-11-18T03:22:09;95725.81;;;10.70;95.31
15932;BME280;8065;49.520;11.284;2022-11-18T03:24:40;95736.44;;;10.70;95.99
15932;BME280;8065;49.520;11.284;2022-11-18T03:27:12;95741.75;;;10.70;95.41
15932;BME280;8065;49.520;11.284;2022-11-18T03:29:46;95742.53;;;10.71;95.42
15932;BME280;8065;49.520;11.284;2022-11-18T03:32:18;95745.44;;;10.62;95.45
15932;BME280;8065;49.520;11.284;2022-11-18T03:34:49;95748.06;;;10.59;95.45
15932;BME280;8065;49.520;11.284;2022-11-18T03:37:18;95749.22;;;10.61;96.08
15932;BME280;8065;49.520;11.284;2022-11-18T03:39:51;95747.84;;;10.71;95.46
15932;BME280;8065;49.520;11.284;2022-11-18T03:42:23;95755.41;;;10.69;95.19
15932;BME280;8065;49.520;11.284;2022-11-18T03:44:51;95750.13;;;10.72;95.05
15932;BME280;8065;49.520;11.284;2022-11-18T03:47:25;95754.72;;;10.75;95.36
15932;BME280;8065;49.520;11.284;2022-11-18T03:49:56;95768.22;;;10.63;95.49
15932;BME280;8065;49.520;11.284;2022-11-18T03:52:27;95760.47;;;10.51;95.60
15932;BME280;8065;49.520;11.284;2022-11-18T03:54:58;95772.59;;;10.48;95.96
15932;BME280;8065;49.520;11.284;2022-11-18T03:57:33;95775.69;;;10.54;96.41
15932;BME280;8065;49.520;11.284;2022-11-18T04:00:06;95777.31;;;10.62;95.90
15932;BME280;8065;49.520;11.284;2022-11-18T04:02:36;95775.56;;;10.73;95.59
15932;BME280;8065;49.520;11.284;2022-11-18T04:05:05;95777.16;;;10.78;95.20
15932;BME280;8065;49.520;11.284;2022-11-18T04:07:33;95775.25;;;10.78;95.75
15932;BME280;8065;49.520;11.284;2022-11-18T04:10:05;95780.66;;;10.86;95.72
15932;BME280;8065;49.520;11.284;2022-11-18T04:12:37;95772.91;;;10.73;95.76
15932;BME280;8065;49.520;11.284;2022-11-18T04:15:06;95778.66;;;10.49;97.17
15932;BME280;8065;49.520;11.284;2022-11-18T04:17:33;95774.22;;;10.57;96.94
15932;BME280;8065;49.520;11.284;2022-11-18T04:20:00;95783.16;;;10.45;97.33
15932;BME280;8065;49.520;11.284;2022-11-18T04:22:27;95785.84;;;10.48;97.14
15932;BME280;8065;49.520;11.284;2022-11-18T04:24:53;95784.06;;;10.56;97.61
15932;BME280;8065;49.520;11.284;2022-11-18T04:27:20;95774.94;;;10.54;97.25
15932;BME280;8065;49.520;11.284;2022-11-18T04:29:46;95778.84;;;10.63;96.98
15932;BME280;8065;49.520;11.284;2022-11-18T04:32:13;95771.06;;;10.77;96.20
15932;BME280;8065;49.520;11.284;2022-11-18T04:34:40;95774.09;;;10.76;95.21
15932;BME280;8065;49.520;11.284;2022-11-18T04:37:07;95780.16;;;10.76;95.93
15932;BME280;8065;49.520;11.284;2022-11-18T04:39:34;95784.25;;;10.70;95.67
15932;BME280;8065;49.520;11.284;2022-11-18T04:42:01;95786.47;;;10.65;96.57
15932;BME280;8065;49.520;11.284;2022-11-18T04:44:29;95793.75;;;10.71;96.24
15932;BME280;8065;49.520;11.284;2022-11-18T04:46:57;95789.56;;;10.70;96.29
15932;BME280;8065;49.520;11.284;2022-11-18T04:49:25;95785.78;;;10.71;96.18
15932;BME280;8065;49.520;11.284;2022-11-18T04:51:52;95780.34;;;10.61;96.23
15932;BME280;8065;49.520;11.284;2022-11-18T04:54:21;95793.44;;;10.76;96.30
15932;BME280;8065;49.520;11.284;2022-11-18T04:56:48;95796.47;;;10.75;96.21
15932;BME280;8065;49.520;11.284;2022-11-18T04:59:16;95793.31;;;10.66;96.41
15932;BME280;8065;49.520;11.284;2022-11-18T05:01:43;95791.06;;;10.68;96.29
15932;BME280;8065;49.520;11.284;2022-11-18T05:04:11;95785.34;;;10.66;96.47
15932;BME280;8065;49.520;11.284;2022-11-18T05:06:38;95796.63;;;10.59;96.74
15932;BME280;8065;49.520;11.284;2022-11-18T05:09:05;95799.44;;;10.70;96.13
15932;BME280;8065;49.520;11.284;2022-11-18T05:11:32;95796.78;;;10.70;96.39
15932;BME280;8065;49.520;11.284;2022-11-18T05:14:16;95793.44;;;10.76;96.58
15932;BME280;8065;49.520;11.284;2022-11-18T05:16:43;95796.41;;;10.71;96.75
15932;BME280;8065;49.520;11.284;2022-11-18T05:19:10;95795.59;;;10.67;96.35
15932;BME280;8065;49.520;11.284;2022-11-18T05:21:36;95792.53;;;10.65;96.67
15932;BME280;8065;49.520;11.284;2022-11-18T05:24:04;95800.91;;;10.67;97.56
15932;BME280;8065;49.520;11.284;2022-11-18T05:26:32;95805.56;;;10.74;97.10
15932;BME280;8065;49.520;11.284;2022-11-18T05:28:59;95813.13;;;10.72;97.19
15932;BME280;8065;49.520;11.284;2022-11-18T05:31:25;95809.75;;;10.75;97.19
15932;BME280;8065;49.520;11.284;2022-11-18T05:33:51;95811.00;;;10.84;96.86
15932;BME280;8065;49.520;11.284;2022-11-18T05:36:19;95811.41;;;10.87;96.37
15932;BME280;8065;49.520;11.284;2022-11-18T05:38:47;95803.44;;;10.87;96.75
15932;BME280;8065;49.520;11.284;2022-11-18T05:41:13;95804.22;;;10.87;96.58
15932;BME280;8065;49.520;11.284;2022-11-18T05:44:02;95807.63;;;10.88;97.14
15932;BME280;8065;49.520;11.284;2022-11-18T05:46:28;95806.91;;;10.91;96.58
15932;BME280;8065;49.520;11.284;2022-11-18T05:48:55;95817.63;;;10.98;96.06
15932;BME280;8065;49.520;11.284;2022-11-18T05:51:23;95816.50;;;10.99;95.93
15932;BME280;8065;49.520;11.284;2022-11-18T05:53:50;95812.72;;;11.00;95.69
15932;BME280;8065;49.520;11.284;2022-11-18T05:56:19;95811.97;;;10.99;96.14
15932;BME280;8065;49.520;11.284;2022-11-18T05:58:47;95815.38;;;11.00;96.79
15932;BME280;8065;49.520;11.284;2022-11-18T06:01:18;95811.31;;;11.09;95.68
15932;BME280;8065;49.520;11.284;2022-11-18T06:03:46;95811.97;;;10.99;96.28
15932;BME280;8065;49.520;11.284;2022-11-18T06:06:14;95818.72;;;10.93;96.53
15932;BME280;8065;49.520;11.284;2022-11-18T06:08:46;95810.78;;;10.97;96.95
15932;BME280;8065;49.520;11.284;2022-11-18T06:11:16;95814.94;;;10.94;96.40
15932;BME280;8065;49.520;11.284;2022-11-18T06:13:46;95810.38;;;10.95;96.84
15932;BME280;8065;49.520;11.284;2022-11-18T06:16:17;95812.31;;;10.98;96.29
15932;BME280;8065;49.520;11.284;2022-11-18T06:18:46;95821.81;;;10.99;96.87
15932;BME280;8065;49.520;11.284;2022-11-18T06:21:12;95820.06;;;11.10;96.29
15932;BME280;8065;49.520;11.284;2022-11-18T06:23:40;95831.09;;;11.12;96.39
15932;BME280;8065;49.520;11.284;2022-11-18T06:26:07;95826.59;;;11.16;96.03
15932;BME280;8065;49.520;11.284;2022-11-18T06:28:36;95830.88;;;11.24;96.24
15932;BME280;8065;49.520;11.284;2022-11-18T06:31:04;95835.06;;;11.29;96.05
15932;BME280;8065;49.520;11.284;2022-11-18T06:33:31;95825.28;;;11.36;95.49
15932;BME280;8065;49.520;11.284;2022-11-18T06:35:58;95832.88;;;11.34;95.17
15932;BME280;8065;49.520;11.284;2022-11-18T06:38:24;95843.88;;;11.33;95.72
15932;BME280;8065;49.520;11.284;2022-11-18T06:40:51;95844.94;;;11.28;95.19
15932;BME280;8065;49.520;11.284;2022-11-18T06:43:18;95842.63;;;11.23;95.61
15932;BME280;8065;49.520;11.284;2022-11-18T06:46:03;95855.84;;;11.16;95.64
15932;BME280;8065;49.520;11.284;2022-11-18T06:48:49;95855.44;;;11.14;95.92
15932;BME280;8065;49.520;11.284;2022-11-18T06:51:16;95862.69;;;11.17;96.33
15932;BME280;8065;49.520;11.284;2022-11-18T06:53:42;95863.19;;;11.26;95.77
15932;BME280;8065;49.520;11.284;2022-11-18T06:56:11;95860.91;;;11.28;95.92
15932;BME280;8065;49.520;11.284;2022-11-18T06:58:38;95868.16;;;11.31;95.58
15932;BME280;8065;49.520;11.284;2022-11-18T07:01:09;95867.06;;;11.36;95.17
15932;BME280;8065;49.520;11.284;2022-11-18T07:03:36;95878.88;;;11.38;95.33
15932;BME280;8065;49.520;11.284;2022-11-18T07:06:04;95874.25;;;11.32;95.25
15932;BME280;8065;49.520;11.284;2022-11-18T07:08:33;95873.16;;;11.36;95.10
15932;BME280;8065;49.520;11.284;2022-11-18T07:11:00;95869.81;;;11.43;94.63
15932;BME280;8065;49.520;11.284;2022-11-18T07:13:26;95877.75;;;11.39;94.82
15932;BME280;8065;49.520;11.284;2022-11-18T07:15:53;95881.53;;;11.38;95.08
15932;BME280;8065;49.520;11.284;2022-11-18T07:18:19;95883.13;;;11.43;95.07
15932;BME280;8065;49.520;11.284;2022-11-18T07:20:46;95883.47;;;11.41;95.03
15932;BME280;8065;49.520;11.284;2022-11-18T07:23:14;95886.84;;;11.38;94.62
15932;BME280;8065;49.520;11.284;2022-11-18T07:25:40;95894.53;;;11.43;95.25
15932;BME280;8065;49.520;11.284;2022-11-18T07:28:07;95891.22;;;11.54;94.45
15932;BME280;8065;49.520;11.284;2022-11-18T07:30:33;95893.06;;;11.49;94.20
15932;BME280;8065;49.520;11.284;2022-11-18T07:33:00;95891.53;;;11.48;94.41
15932;BME280;8065;49.520;11.284;2022-11-18T07:35:26;95903.78;;;11.57;94.43
15932;BME280;8065;49.520;11.284;2022-11-18T07:37:53;95899.94;;;11.50;94.29
15932;BME280;8065;49.520;11.284;2022-11-18T07:40:21;95904.56;;;11.57;94.28
15932;BME280;8065;49.520;11.284;2022-11-18T07:42:47;95902.59;;;11.50;94.43
15932;BME280;8065;49.520;11.284;2022-11-18T07:45:14;95906.38;;;11.49;94.28
15932;BME280;8065;49.520;11.284;2022-11-18T07:47:40;95909.84;;;11.54;94.50
15932;BME280;8065;49.520;11.284;2022-11-18T07:50:07;95918.22;;;11.56;94.41
15932;BME280;8065;49.520;11.284;2022-11-18T07:52:34;95915.06;;;11.46;94.72
15932;BME280;8065;49.520;11.284;2022-11-18T07:55:00;95921.94;;;11.47;95.12
15932;BME280;8065;49.520;11.284;2022-11-18T07:57:28;95922.72;;;11.52;94.59
15932;BME280;8065;49.520;11.284;2022-11-18T07:59:55;95921.19;;;11.50;94.59
15932;BME280;8065;49.520;11.284;2022-11-18T08:02:21;95928.88;;;11.56;94.48
15932;BME280;8065;49.520;11.284;2022-11-18T08:04:48;95925.84;;;11.57;94.55
15932;BME280;8065;49.520;11.284;2022-11-18T08:07:15;95932.66;;;11.55;94.69
15932;BME280;8065;49.520;11.284;2022-11-18T08:09:41;95934.19;;;11.56;94.52
15932;BME280;8065;49.520;11.284;2022-11-18T08:12:08;95937.63;;;11.56;94.45
15932;BME280;8065;49.520;11.284;2022-11-18T08:14:36;95935.34;;;11.58;94.56
15932;BME280;8065;49.520;11.284;2022-11-18T08:17:02;95939.81;;;11.50;95.20
15932;BME280;8065;49.520;11.284;2022-11-18T08:19:29;95933.78;;;11.54;95.30
15932;BME280;8065;49.520;11.284;2022-11-18T08:21:56;95945.56;;;11.53;94.92
15932;BME280;8065;49.520;11.284;2022-11-18T08:24:22;95944.03;;;11.52;94.97
15932;BME280;8065;49.520;11.284;2022-11-18T08:26:49;95934.09;;;11.48;94.72
15932;BME280;8065;49.520;11.284;2022-11-18T08:29:15;95936.03;;;11.52;95.10
15932;BME280;8065;49.520;11.284;2022-11-18T08:31:43;95942.47;;;11.50;94.67
15932;BME280;8065;49.520;11.284;2022-11-18T08:34:10;95941.03;;;11.57;94.52
15932;BME280;8065;49.520;11.284;2022-11-18T08:36:37;95941.13;;;11.64;94.37
15932;BME280;8065;49.520;11.284;2022-11-18T08:39:05;95950.16;;;11.56;94.37
15932;BME280;8065;49.520;11.284;2022-11-18T08:41:34;95947.81;;;11.50;93.91
15932;BME280;8065;49.520;11.284;2022-11-18T08:44:01;95955.34;;;11.45;94.65
15932;BME280;8065;49.520;11.284;2022-11-18T08:46:28;95956.09;;;11.45;94.40
15932;BME280;8065;49.520;11.284;2022-11-18T08:48:56;95963.66;;;11.43;94.35
15932;BME280;8065;49.520;11.284;2022-11-18T08:51:22;95952.22;;;11.39;94.01
15932;BME280;8065;49.520;11.284;2022-11-18T08:53:49;95961.72;;;11.40;94.07
15932;BME280;8065;49.520;11.284;2022-11-18T08:56:18;95958.66;;;11.38;94.16
15932;BME280;8065;49.520;11.284;2022-11-18T08:58:45;95959.38;;;11.35;94.23
15932;BME280;8065;49.520;11.284;2022-11-18T09:01:12;95959.06;;;11.40;93.86
15932;BME280;8065;49.520;11.284;2022-11-18T09:03:39;95963.66;;;11.43;93.78
15932;BME280;8065;49.520;11.284;2022-11-18T09:06:10;95966.22;;;11.36;93.86
15932;BME280;8065;49.520;11.284;2022-11-18T09:08:37;95969.31;;;11.38;93.95
15932;BME280;8065;49.520;11.284;2022-11-18T09:11:05;95965.91;;;11.41;93.87
15932;BME280;8065;49.520;11.284;2022-11-18T09:13:32;95970.44;;;11.37;93.61
15932;BME280;8065;49.520;11.284;2022-11-18T09:15:59;95974.94;;;11.33;93.61
15932;BME280;8065;49.520;11.284;2022-11-18T09:18:25;95968.53;;;11.38;93.71
15932;BME280;8065;49.520;11.284;2022-11-18T09:20:53;95973.59;;;11.46;93.32
15932;BME280;8065;49.520;11.284;2022-11-18T09:23:22;95973.19;;;11.44;93.93
15932;BME280;8065;49.520;11.284;2022-11-18T09:25:56;95978.81;;;11.39;93.84
15932;BME280;8065;49.520;11.284;2022-11-18T09:28:22;95972.06;;;11.45;93.64
15932;BME280;8065;49.520;11.284;2022-11-18T09:30:49;95979.63;;;11.43;93.73
15932;BME280;8065;49.520;11.284;2022-11-18T09:33:15;95989.97;;;11.48;93.71
15932;BME280;8065;49.520;11.284;2022-11-18T09:35:42;95990.38;;;11.50;93.88
15932;BME280;8065;49.520;11.284;2022-11-18T09:38:09;95996.41;;;11.47;93.37
15932;BME280;8065;49.520;11.284;2022-11-18T09:40:43;95992.22;;;11.46;93.71
15932;BME280;8065;49.520;11.284;2022-11-18T09:43:18;95994.56;;;11.52;93.13
15932;BME280;8065;49.520;11.284;2022-11-18T09:45:51;95995.59;;;11.43;93.32
15932;BME280;8065;49.520;11.284;2022-11-18T09:48:20;95999.31;;;11.39;93.36
15932;BME280;8065;49.520;11.284;2022-11-18T09:51:10;95999.78;;;11.44;92.97
15932;BME280;8065;49.520;11.284;2022-11-18T09:53:38;95999.53;;;11.53;92.86
15932;BME280;8065;49.520;11.284;2022-11-18T09:56:11;96002.53;;;11.52;93.03
15932;BME280;8065;49.520;11.284;2022-11-18T09:58:39;96000.66;;;11.52;93.29
15932;BME280;8065;49.520;11.284;2022-11-18T10:01:10;96004.78;;;11.49;93.46
15932;BME280;8065;49.520;11.284;2022-11-18T10:03:37;96011.63;;;11.50;93.34
15932;BME280;8065;49.520;11.284;2022-11-18T10:06:15;96003.56;;;11.43;93.44
15932;BME280;8065;49.520;11.284;2022-11-18T10:09:01;96011.09;;;11.38;93.22
15932;BME280;8065;49.520;11.284;2022-11-18T10:11:34;96006.19;;;11.40;93.59
15932;BME280;8065;49.520;11.284;2022-11-18T10:14:12;96006.84;;;11.33;93.97
15932;BME280;8065;49.520;11.284;2022-11-18T10:16:48;96007.66;;;11.37;93.29
15932;BME280;8065;49.520;11.284;2022-11-18T10:19:25;96008.78;;;11.36;93.28
15932;BME280;8065;49.520;11.284;2022-11-18T10:22:03;96011.84;;;11.38;93.33
15932;BME280;8065;49.520;11.284;2022-11-18T10:24:36;96012.16;;;11.33;93.90
15932;BME280;8065;49.520;11.284;2022-11-18T10:27:08;96012.16;;;11.33;93.72
15932;BME280;8065;49.520;11.284;2022-11-18T10:29:35;96016.09;;;11.43;93.41
15932;BME280;8065;49.520;11.284;2022-11-18T10:32:04;96018.25;;;11.34;93.37
15932;BME280;8065;49.520;11.284;2022-11-18T10:34:32;96024.44;;;11.41;93.10
15932;BME280;8065;49.520;11.284;2022-11-18T10:37:00;96026.28;;;11.37;93.42
15932;BME280;8065;49.520;11.284;2022-11-18T10:39:27;96023.72;;;11.44;93.51
15932;BME280;8065;49.520;11.284;2022-11-18T10:42:00;96027.91;;;11.45;93.77
15932;BME280;8065;49.520;11.284;2022-11-18T10:44:35;96028.38;;;11.51;93.55
15932;BME280;8065;49.520;11.284;2022-11-18T10:47:23;96028.31;;;11.47;93.46
15932;BME280;8065;49.520;11.284;2022-11-18T10:49:51;96029.03;;;11.44;93.67
15932;BME280;8065;49.520;11.284;2022-11-18T10:52:18;96034.34;;;11.44;93.37
15932;BME280;8065;49.520;11.284;2022-11-18T10:55:04;96032.41;;;11.41;93.72
15932;BME280;8065;49.520;11.284;2022-11-18T10:57:35;96030.25;;;11.50;93.56
15932;BME280;8065;49.520;11.284;2022-11-18T11:00:04;96033.75;;;11.55;93.26
15932;BME280;8065;49.520;11.284;2022-11-18T11:02:34;96033.75;;;11.55;93.67
15932;BME280;8065;49.520;11.284;2022-11-18T11:05:15;96029.19;;;11.55;93.50
15932;BME280;8065;49.520;11.284;2022-11-18T11:07:42;96035.31;;;11.59;93.38
15932;BME280;8065;49.520;11.284;2022-11-18T11:10:18;96028.47;;;11.58;93.63
15932;BME280;8065;49.520;11.284;2022-11-18T11:12:52;96031.50;;;11.57;93.21
15932;BME280;8065;49.520;11.284;2022-11-18T11:15:23;96026.88;;;11.54;93.23
15932;BME280;8065;49.520;11.284;2022-11-18T11:17:57;96026.47;;;11.52;93.75
15932;BME280;8065;49.520;11.284;2022-11-18T11:20:38;96031.34;;;11.46;93.14
15932;BME280;8065;49.520;11.284;2022-11-18T11:23:07;96026.13;;;11.53;93.83
15932;BME280;8065;49.520;11.284;2022-11-18T11:25:41;96027.19;;;11.48;93.73
15932;BME280;8065;49.520;11.284;2022-11-18T11:28:14;96035.59;;;11.50;93.54
15932;BME280;8065;49.520;11.284;2022-11-18T11:30:51;96036.00;;;11.53;93.44
15932;BME280;8065;49.520;11.284;2022-11-18T11:33:25;96034.47;;;11.52;93.56
15932;BME280;8065;49.520;11.284;2022-11-18T11:36:06;96031.34;;;11.46;93.54
15932;BME280;8065;49.520;11.284;2022-11-18T11:38:46;96032.63;;;11.56;93.48
15932;BME280;8065;49.520;11.284;2022-11-18T11:41:21;96039.25;;;11.69;93.21
15932;BME280;8065;49.520;11.284;2022-11-18T11:44:06;96037.69;;;11.64;93.61
15932;BME280;8065;49.520;11.284;2022-11-18T11:46:46;96044.06;;;11.60;93.98
15932;BME280;8065;49.520;11.284;2022-11-18T11:49:47;96041.41;;;11.60;93.93
15932;BME280;8065;49.520;11.284;2022-11-18T11:52:19;96041.50;;;11.67;93.52
15932;BME280;8065;49.520;11.284;2022-11-18T11:54:53;96046.84;;;11.67;93.99
15932;BME280;8065;49.520;11.284;2022-11-18T11:57:33;96045.72;;;11.68;93.73
15932;BME280;8065;49.520;11.284;2022-11-18T12:00:04;96041.41;;;11.60;93.87
15932;BME280;8065;49.520;11.284;2022-11-18T12:02:45;96054.41;;;11.65;94.02
15932;BME280;8065;49.520;11.284;2022-11-18T12:05:21;96043.03;;;11.68;93.98
15932;BME280;8065;49.520;11.284;2022-11-18T12:07:51;96050.22;;;11.64;93.70
15932;BME280;8065;49.520;11.284;2022-11-18T12:10:29;96051.84;;;11.72;93.43
15932;BME280;8065;49.520;11.284;2022-11-18T12:13:13;96044.88;;;11.64;93.77
15932;BME280;8065;49.520;11.284;2022-11-18T12:15:50;96054.50;;;11.72;93.95
15932;BME280;8065;49.520;11.284;2022-11-18T12:18:24;96055.31;;;11.76;93.64
15932;BME280;8065;49.520;11.284;2022-11-18T12:20:53;96055.69;;;11.74;93.75
15932;BME280;8065;49.520;11.284;2022-11-18T12:23:21;96040.91;;;11.77;93.85
15932;BME280;8065;49.520;11.284;2022-11-18T12:25:59;96049.19;;;11.72;93.62
15932;BME280;8065;49.520;11.284;2022-11-18T12:28:28;96040.47;;;11.75;94.58
15932;BME280;8065;49.520;11.284;2022-11-18T12:31:34;96052.09;;;11.63;94.63
15932;BME280;8065;49.520;11.284;2022-11-18T12:34:04;96056.59;;;11.59;95.16
15932;BME280;8065;49.520;11.284;2022-11-18T12:36:41;96056.00;;;11.69;94.69
15932;BME280;8065;49.520;11.284;2022-11-18T12:39:46;96057.16;;;11.72;94.83
15932;BME280;8065;49.520;11.284;2022-11-18T12:42:35;96055.13;;;11.88;93.97
15932;BME280;8065;49.520;11.284;2022-11-18T12:48:32;96051.56;;;11.77;95.06
15932;BME280;8065;49.520;11.284;2022-11-18T12:53:51;96057.69;;;11.81;95.33
15932;BME280;8065;49.520;11.284;2022-11-18T12:56:21;96062.44;;;11.95;94.39
15932;BME280;8065;49.520;11.284;2022-11-18T12:58:50;96060.91;;;11.94;94.54
15932;BME280;8065;49.520;11.284;2022-11-18T13:01:18;96061.69;;;11.94;94.25
15932;BME280;8065;49.520;11.284;2022-11-18T13:03:47;96066.94;;;11.91;94.62
15932;BME280;8065;49.520;11.284;2022-11-18T13:06:23;96069.34;;;11.99;94.35
15932;BME280;8065;49.520;11.284;2022-11-18T13:08:52;96067.09;;;12.01;94.15
15932;BME280;8065;49.520;11.284;2022-11-18T13:11:20;96071.66;;;12.01;94.21
15932;BME280;8065;49.520;11.284;2022-11-18T13:14:13;96066.38;;;12.04;94.40
15932;BME280;8065;49.520;11.284;2022-11-18T13:16:58;96067.41;;;11.96;94.87
15932;BME280;8065;49.520;11.284;2022-11-18T13:19:53;96066.28;;;11.97;94.58
15932;BME280;8065;49.520;11.284;2022-11-18T13:22:21;96068.63;;;12.02;94.57
15932;BME280;8065;49.520;11.284;2022-11-18T13:25:21;96071.34;;;12.06;94.49